Time;durP1;ratioP1;P1;durP2;ratioP2;P2;SDS_P1;SDS_P2;PMS_P1;PMS_P2;Temp;Humidity;BMP_temperature;BMP_pressure;BME280_temperature;BME280_humidity;BME280_pressure;Samples;Min_cycle;Max_cycle;Signal;HPM_P1;HPM_P2
2021/10/11 00:02:12;;;;;;;4.38;1.45;;;14.80;98.40;;;;;;5052612;28;20025;-91
2021/10/11 00:04:38;;;;;;;6.03;1.73;;;14.80;98.40;;;;;;5023775;28;20029;-91
2021/10/11 00:07:04;;;;;;;5.75;2.00;;;14.80;98.40;;;;;;5022125;28;20021;-91
2021/10/11 00:09:30;;;;;;;5.80;1.80;;;14.80;98.40;;;;;;5040969;28;20415;-91
2021/10/11 00:11:56;;;;;;;3.72;1.70;;;14.80;98.40;;;;;;5041487;28;20028;-91
2021/10/11 00:14:22;;;;;;;3.83;1.80;;;14.80;98.40;;;;;;5040527;28;20078;-91
2021/10/11 00:16:47;;;;;;;2.65;1.40;;;14.80;98.40;;;;;;5025121;28;20025;-91
2021/10/11 00:19:13;;;;;;;6.07;1.90;;;14.80;98.40;;;;;;5059482;28;20029;-91
2021/10/11 00:21:39;;;;;;;5.72;2.00;;;14.80;98.50;;;;;;5041559;28;20044;-91
2021/10/11 00:24:05;;;;;;;4.43;1.85;;;14.80;98.50;;;;;;5048148;28;20029;-90
2021/10/11 00:26:30;;;;;;;6.25;1.95;;;14.80;98.50;;;;;;5021767;28;20137;-89
2021/10/11 00:28:56;;;;;;;5.20;2.00;;;14.80;98.50;;;;;;5040259;28;20029;-90
2021/10/11 00:31:22;;;;;;;8.50;2.47;;;14.70;98.40;;;;;;5048335;28;20025;-91
2021/10/11 00:33:47;;;;;;;6.70;2.28;;;14.70;98.40;;;;;;5033890;28;20025;-90
2021/10/11 00:36:13;;;;;;;5.90;2.15;;;14.70;98.40;;;;;;5027041;28;20021;-90
2021/10/11 00:38:39;;;;;;;6.18;2.00;;;14.70;98.50;;;;;;5019025;28;20029;-91
2021/10/11 00:41:05;;;;;;;3.63;1.90;;;14.70;98.50;;;;;;5032130;28;20076;-91
2021/10/11 00:43:30;;;;;;;6.50;2.08;;;14.70;98.50;;;;;;5025684;28;20029;-90
2021/10/11 00:45:56;;;;;;;4.30;2.10;;;14.70;98.40;;;;;;5037324;28;20040;-91
2021/10/11 00:48:22;;;;;;;6.45;2.33;;;14.70;98.40;;;;;;5039369;28;20025;-91
2021/10/11 00:50:48;;;;;;;5.68;2.80;;;14.60;98.40;;;;;;5052113;28;20036;-91
2021/10/11 00:53:16;;;;;;;5.57;2.22;;;14.60;98.30;;;;;;5021535;28;20021;-91
2021/10/11 00:55:42;;;;;;;6.05;2.17;;;14.60;98.30;;;;;;5022207;28;20032;-92
2021/10/11 00:58:08;;;;;;;4.82;2.08;;;14.60;98.30;;;;;;5021276;28;20092;-92
2021/10/11 01:00:33;;;;;;;5.53;2.35;;;14.60;98.30;;;;;;5038379;28;20025;-91
2021/10/11 01:02:59;;;;;;;6.60;2.60;;;14.50;98.30;;;;;;5076148;28;20108;-89
2021/10/11 01:05:25;;;;;;;4.00;2.22;;;14.50;98.30;;;;;;5032596;28;20099;-89
2021/10/11 01:07:51;;;;;;;4.82;1.92;;;14.50;98.30;;;;;;5003481;28;20034;-90
2021/10/11 01:10:17;;;;;;;5.68;2.00;;;14.50;98.30;;;;;;5008531;28;20091;-89
2021/10/11 01:12:43;;;;;;;7.35;2.30;;;14.50;98.30;;;;;;5005778;28;20474;-90
2021/10/11 01:15:10;;;;;;;4.47;1.83;;;14.50;98.30;;;;;;5013634;28;20060;-89
2021/10/11 01:17:35;;;;;;;8.40;2.47;;;14.40;98.40;;;;;;5031527;28;20458;-89
2021/10/11 01:20:02;;;;;;;4.65;2.00;;;14.40;98.40;;;;;;5041193;28;20040;-89
2021/10/11 01:22:39;;;;;;;5.50;2.42;;;14.40;98.50;;;;;;5057367;28;20016;-91
2021/10/11 01:25:07;;;;;;;6.22;2.28;;;14.40;98.40;;;;;;5044780;28;20048;-91
2021/10/11 01:27:33;;;;;;;5.70;2.63;;;14.40;98.40;;;;;;5041049;28;20465;-91
2021/10/11 01:29:59;;;;;;;5.97;2.22;;;14.40;98.40;;;;;;5056637;28;20035;-91
2021/10/11 01:32:25;;;;;;;5.40;2.45;;;14.40;98.30;;;;;;5019380;28;20047;-91
2021/10/11 01:34:52;;;;;;;6.03;2.53;;;14.30;98.30;;;;;;5028049;28;20076;-90
2021/10/11 01:37:17;;;;;;;6.88;2.28;;;14.30;98.20;;;;;;5015336;28;20033;-90
2021/10/11 01:39:43;;;;;;;6.78;2.38;;;14.30;98.20;;;;;;5020302;28;20386;-89
2021/10/11 01:42:09;;;;;;;5.18;2.20;;;14.30;98.20;;;;;;5019721;28;20039;-90
2021/10/11 01:44:35;;;;;;;4.28;1.88;;;14.30;98.20;;;;;;5040305;28;20025;-90
2021/10/11 01:47:04;;;;;;;3.47;2.25;;;14.30;98.30;;;;;;5025116;28;20442;-90
2021/10/11 01:49:29;;;;;;;8.55;2.35;;;14.20;98.30;;;;;;5015057;28;20021;-89
2021/10/11 01:51:55;;;;;;;5.68;2.30;;;14.20;98.40;;;;;;5040168;28;20025;-89
2021/10/11 01:54:21;;;;;;;5.78;2.30;;;14.20;98.40;;;;;;5020265;28;20375;-90
2021/10/11 01:56:46;;;;;;;6.03;3.15;;;14.20;98.40;;;;;;5027217;28;20024;-89
2021/10/11 01:59:12;;;;;;;6.07;2.30;;;14.20;98.50;;;;;;5027333;28;20385;-89
2021/10/11 02:01:38;;;;;;;7.35;2.25;;;14.20;98.50;;;;;;5023326;28;20021;-90
2021/10/11 02:04:04;;;;;;;5.10;2.38;;;14.20;98.50;;;;;;5025815;28;20078;-90
2021/10/11 02:06:29;;;;;;;7.90;2.40;;;14.20;98.50;;;;;;5040383;28;20017;-90
2021/10/11 02:08:55;;;;;;;6.78;3.15;;;14.20;98.50;;;;;;5044450;28;20032;-89
2021/10/11 02:11:21;;;;;;;7.43;2.63;;;14.20;98.50;;;;;;5026061;28;20021;-89
2021/10/11 02:13:47;;;;;;;8.38;3.50;;;14.20;98.50;;;;;;5028073;28;20090;-88
2021/10/11 02:16:12;;;;;;;7.68;2.67;;;14.10;98.50;;;;;;5033516;28;20080;-89
2021/10/11 02:18:38;;;;;;;6.07;2.38;;;14.10;98.50;;;;;;5032040;28;20057;-89
2021/10/11 02:21:04;;;;;;;7.65;2.50;;;14.10;98.50;;;;;;5033749;28;20048;-89
2021/10/11 02:23:30;;;;;;;5.35;2.22;;;14.10;98.40;;;;;;5017046;28;20017;-89
2021/10/11 02:25:55;;;;;;;6.22;2.20;;;14.10;98.40;;;;;;5004907;28;20053;-89
2021/10/11 02:29:01;;;;;;;7.25;2.40;;;14.00;98.40;;;;;;5015595;28;20033;-88
2021/10/11 02:31:27;;;;;;;7.22;2.58;;;14.00;98.40;;;;;;5036511;28;20029;-89
2021/10/11 02:33:53;;;;;;;6.55;2.40;;;14.00;98.30;;;;;;5020081;28;20474;-90
2021/10/11 02:36:18;;;;;;;6.03;2.45;;;13.90;98.30;;;;;;5021263;28;20017;-90
2021/10/11 02:38:44;;;;;;;8.35;2.80;;;13.90;98.40;;;;;;5007046;28;20469;-90
2021/10/11 02:41:10;;;;;;;6.53;2.33;;;13.90;98.30;;;;;;5023819;28;20032;-90
2021/10/11 02:43:36;;;;;;;7.90;2.38;;;13.90;98.30;;;;;;5054037;28;20109;-89
2021/10/11 02:46:01;;;;;;;7.65;2.50;;;13.90;98.30;;;;;;5028641;28;20021;-90
2021/10/11 02:48:27;;;;;;;4.22;2.00;;;13.80;98.30;;;;;;5011007;28;20048;-90
2021/10/11 02:50:53;;;;;;;8.52;2.85;;;13.80;98.20;;;;;;5043411;28;20024;-89
2021/10/11 02:53:19;;;;;;;5.15;2.10;;;13.80;98.30;;;;;;5009721;28;20387;-89
2021/10/11 02:55:44;;;;;;;6.22;2.42;;;13.80;98.30;;;;;;5003735;28;20033;-89
2021/10/11 02:58:10;;;;;;;7.93;2.13;;;13.70;98.30;;;;;;5002853;28;20090;-90
2021/10/11 03:00:36;;;;;;;7.28;2.50;;;13.70;98.30;;;;;;5016682;28;20033;-90
2021/10/11 03:03:01;;;;;;;7.80;2.70;;;13.70;98.30;;;;;;5016333;28;20051;-90
2021/10/11 03:05:27;;;;;;;7.95;2.35;;;13.70;98.30;;;;;;5037180;28;20033;-90
2021/10/11 03:07:52;;;;;;;7.68;2.58;;;13.60;98.20;;;;;;5023147;28;20032;-90
2021/10/11 03:10:18;;;;;;;4.45;1.90;;;13.60;98.20;;;;;;5023062;28;20040;-90
2021/10/11 03:12:44;;;;;;;8.25;2.55;;;13.60;98.20;;;;;;5023350;28;20021;-89
2021/10/11 03:15:10;;;;;;;6.88;2.15;;;13.50;98.10;;;;;;5057772;28;20021;-90
2021/10/11 03:17:36;;;;;;;6.82;2.25;;;13.50;98.10;;;;;;5030795;28;20153;-89
2021/10/11 03:20:03;;;;;;;5.93;2.00;;;13.50;98.00;;;;;;5045671;28;20041;-90
2021/10/11 03:22:28;;;;;;;5.80;2.33;;;13.50;98.00;;;;;;5034173;28;20028;-90
2021/10/11 03:24:54;;;;;;;8.32;2.35;;;13.50;98.00;;;;;;5055014;28;20192;-90
2021/10/11 03:30:42;;;;;;;11.65;2.78;;;13.40;98.10;;;;;;5060238;28;20036;-90
2021/10/11 03:33:08;;;;;;;6.57;2.47;;;13.40;98.20;;;;;;5039465;28;20021;-90
2021/10/11 03:35:37;;;;;;;8.05;2.38;;;13.30;98.10;;;;;;5022230;28;20075;-90
2021/10/11 03:38:02;;;;;;;6.82;2.30;;;13.30;98.20;;;;;;5022752;28;20025;-89
2021/10/11 03:40:28;;;;;;;5.43;2.20;;;13.30;98.10;;;;;;5022847;28;20029;-90
2021/10/11 03:42:54;;;;;;;4.20;2.10;;;13.30;98.00;;;;;;5023741;28;20025;-90
2021/10/11 03:45:20;;;;;;;7.28;2.50;;;13.30;98.00;;;;;;5023085;28;20144;-89
2021/10/11 03:47:46;;;;;;;7.35;2.63;;;13.20;98.00;;;;;;5039327;28;20497;-89
2021/10/11 03:50:11;;;;;;;7.68;2.47;;;13.20;98.00;;;;;;5022763;28;20509;-89
2021/10/11 03:52:37;;;;;;;8.20;2.45;;;13.20;98.00;;;;;;5038829;28;20025;-88
2021/10/11 03:55:03;;;;;;;5.18;2.30;;;13.10;98.00;;;;;;5023922;28;20036;-89
2021/10/11 03:57:29;;;;;;;6.78;2.58;;;13.10;98.00;;;;;;5042850;28;20082;-88
2021/10/11 03:59:55;;;;;;;7.53;2.08;;;13.10;98.00;;;;;;5026931;28;20037;-88
2021/10/11 04:02:21;;;;;;;6.45;2.20;;;13.10;98.30;;;;;;5039683;28;20042;-89
2021/10/11 04:05:06;;;;;;;5.43;2.40;;;13.10;98.00;;;;;;5051965;28;20107;-89
2021/10/11 04:07:32;;;;;;;7.00;2.38;;;13.00;98.00;;;;;;5027152;28;20028;-88
2021/10/11 04:10:01;;;;;;;9.05;3.00;;;13.00;98.00;;;;;;5047455;28;20351;-89
2021/10/11 04:12:34;;;;;;;6.22;2.60;;;13.00;98.00;;;;;;5037624;28;20028;-89
2021/10/11 04:15:04;;;;;;;5.15;2.25;;;13.00;98.30;;;;;;5059286;28;20017;-91
2021/10/11 04:17:30;;;;;;;7.88;2.42;;;12.90;98.10;;;;;;5043196;28;20048;-91
2021/10/11 04:19:56;;;;;;;6.70;2.42;;;12.90;98.10;;;;;;5051038;28;20028;-91
2021/10/11 04:22:22;;;;;;;7.55;2.60;;;12.90;98.00;;;;;;5028706;28;20552;-92
2021/10/11 04:24:48;;;;;;;9.48;2.70;;;12.90;98.00;;;;;;5068065;28;20044;-91
2021/10/11 04:27:14;;;;;;;7.18;2.90;;;12.80;98.00;;;;;;5058398;28;20063;-91
2021/10/11 04:29:40;;;;;;;9.43;2.80;;;12.80;98.10;;;;;;5012935;28;20466;-91
2021/10/11 04:32:07;;;;;;;9.32;3.45;;;12.80;97.90;;;;;;5048079;28;20020;-91
2021/10/11 04:34:32;;;;;;;5.68;2.50;;;12.80;97.90;;;;;;5057774;28;20036;-91
2021/10/11 04:37:04;;;;;;;9.88;3.35;;;12.80;98.00;;;;;;5022587;28;20025;-86
2021/10/11 04:39:30;;;;;;;7.07;2.80;;;12.70;98.00;;;;;;5020523;28;20071;-86
2021/10/11 04:41:55;;;;;;;8.23;2.95;;;12.70;98.00;;;;;;5034963;28;20025;-87
2021/10/11 04:44:21;;;;;;;6.47;2.65;;;12.70;97.90;;;;;;5023449;28;20470;-89
2021/10/11 04:46:46;;;;;;;9.68;3.17;;;12.60;97.90;;;;;;5026836;28;20029;-90
2021/10/11 04:49:12;;;;;;;7.93;2.70;;;12.60;98.00;;;;;;5026720;28;20029;-90
2021/10/11 04:51:38;;;;;;;8.38;2.80;;;12.60;97.90;;;;;;5036710;28;20054;-90
2021/10/11 04:54:04;;;;;;;6.32;2.42;;;12.60;98.00;;;;;;5029261;28;20078;-90
2021/10/11 04:56:29;;;;;;;6.75;2.40;;;12.60;98.00;;;;;;5029884;28;20047;-90
2021/10/11 04:58:55;;;;;;;6.93;2.83;;;12.60;98.00;;;;;;5042164;28;20078;-91
2021/10/11 05:01:21;;;;;;;8.63;2.90;;;12.50;97.90;;;;;;5034175;28;20025;-90
2021/10/11 05:03:47;;;;;;;5.95;2.80;;;12.50;97.90;;;;;;5019636;28;20139;-92
2021/10/11 05:06:13;;;;;;;6.47;2.50;;;12.50;98.00;;;;;;5010885;28;20045;-86
2021/10/11 05:08:38;;;;;;;6.75;2.60;;;12.40;97.90;;;;;;5029663;28;20446;-88
2021/10/11 05:11:04;;;;;;;7.75;3.03;;;12.40;97.90;;;;;;5045739;28;20025;-88
2021/10/11 05:13:30;;;;;;;7.20;2.50;;;12.40;98.00;;;;;;5033792;28;20054;-89
2021/10/11 05:15:56;;;;;;;6.78;2.50;;;12.40;97.90;;;;;;5026441;28;20021;-88
2021/10/11 05:18:22;;;;;;;3.83;2.10;;;12.30;97.80;;;;;;5044232;28;20503;-89
2021/10/11 05:20:50;;;;;;;6.22;2.40;;;12.30;97.90;;;;;;5025928;28;20120;-89
2021/10/11 05:23:17;;;;;;;7.82;2.75;;;12.30;97.80;;;;;;5015865;28;20108;-89
2021/10/11 05:25:44;;;;;;;9.48;2.88;;;12.30;97.90;;;;;;5036804;28;20049;-90
2021/10/11 05:28:10;;;;;;;9.40;2.88;;;12.30;97.90;;;;;;5021005;28;20074;-90
2021/10/11 05:30:40;;;;;;;8.57;3.10;;;12.20;97.90;;;;;;5054365;28;20029;-89
2021/10/11 05:33:07;;;;;;;7.97;2.63;;;12.20;98.00;;;;;;5007849;28;20026;-87
2021/10/11 05:35:33;;;;;;;7.10;2.90;;;12.20;98.00;;;;;;5037905;28;20465;-89
2021/10/11 05:38:01;;;;;;;6.35;2.58;;;12.20;97.90;;;;;;5028538;28;20124;-90
2021/10/11 05:40:26;;;;;;;9.23;2.67;;;12.20;97.90;;;;;;5007358;28;20177;-90
2021/10/11 05:42:52;;;;;;;6.43;2.58;;;12.20;98.00;;;;;;5045313;28;20513;-90
2021/10/11 05:45:18;;;;;;;8.93;2.38;;;12.10;98.00;;;;;;5008869;28;20083;-89
2021/10/11 05:47:44;;;;;;;7.97;2.55;;;12.10;98.00;;;;;;5020259;28;20025;-90
2021/10/11 05:50:09;;;;;;;7.97;2.67;;;12.10;98.00;;;;;;5036714;28;20013;-90
2021/10/11 05:52:36;;;;;;;8.95;2.70;;;12.10;98.00;;;;;;5034011;28;20053;-90
2021/10/11 05:55:01;;;;;;;7.45;2.63;;;12.00;98.00;;;;;;5020452;28;20032;-90
2021/10/11 05:57:27;;;;;;;8.07;2.67;;;12.00;98.00;;;;;;5003904;28;20032;-90
2021/10/11 05:59:53;;;;;;;7.80;2.53;;;12.00;98.00;;;;;;5029136;28;20036;-90
2021/10/11 06:02:18;;;;;;;8.85;2.63;;;12.00;98.00;;;;;;5055904;28;20032;-89
2021/10/11 06:04:44;;;;;;;7.07;2.22;;;12.00;98.10;;;;;;5020368;28;20111;-90
2021/10/11 06:07:10;;;;;;;11.38;2.35;;;12.00;98.10;;;;;;5016754;28;20037;-90
2021/10/11 06:09:35;;;;;;;16.15;3.03;;;12.00;98.10;;;;;;5050164;28;20036;-90
2021/10/11 06:12:01;;;;;;;8.52;2.50;;;11.90;98.10;;;;;;5024299;28;20505;-90
2021/10/11 06:14:27;;;;;;;10.85;3.13;;;12.00;98.20;;;;;;5029762;28;20059;-90
2021/10/11 06:16:52;;;;;;;7.70;2.67;;;11.90;98.20;;;;;;5029088;28;20025;-89
2021/10/11 06:19:18;;;;;;;8.13;3.05;;;11.90;98.30;;;;;;5040572;28;20117;-90
2021/10/11 06:21:44;;;;;;;7.05;2.25;;;11.90;98.30;;;;;;5024063;28;20063;-90
2021/10/11 06:24:11;;;;;;;11.48;3.10;;;11.90;98.40;;;;;;5039528;28;20025;-89
2021/10/11 06:26:37;;;;;;;8.57;2.40;;;11.90;98.50;;;;;;5028277;28;20031;-89
2021/10/11 06:29:02;;;;;;;5.90;2.33;;;11.90;98.50;;;;;;5037305;28;20120;-89
2021/10/11 06:31:28;;;;;;;8.65;2.55;;;12.00;98.50;;;;;;5029328;28;20051;-89
2021/10/11 06:33:54;;;;;;;7.85;2.70;;;11.90;98.50;;;;;;5032202;28;20104;-90
2021/10/11 06:36:20;;;;;;;6.50;2.72;;;12.00;98.50;;;;;;5041348;28;20078;-89
2021/10/11 06:38:45;;;;;;;6.47;2.95;;;12.00;98.50;;;;;;5034453;28;20121;-91
2021/10/11 06:41:11;;;;;;;7.50;2.38;;;12.00;98.60;;;;;;5022267;28;20473;-91
2021/10/11 06:43:37;;;;;;;9.63;2.60;;;12.00;98.50;;;;;;5023869;28;20410;-91
2021/10/11 06:46:02;;;;;;;13.38;3.00;;;12.00;98.50;;;;;;5020596;28;20398;-91
2021/10/11 06:48:28;;;;;;;9.43;2.40;;;11.90;98.50;;;;;;5023315;28;20032;-91
2021/10/11 06:50:54;;;;;;;8.35;2.45;;;11.90;98.60;;;;;;5023778;28;20025;-90
2021/10/11 06:53:19;;;;;;;7.63;2.40;;;11.90;98.60;;;;;;5071691;28;20025;-89
2021/10/11 06:55:45;;;;;;;7.53;2.38;;;11.90;98.60;;;;;;5023572;28;20017;-90
2021/10/11 06:58:11;;;;;;;10.40;2.40;;;12.00;98.60;;;;;;5006894;28;20389;-89
2021/10/11 07:00:37;;;;;;;9.18;2.67;;;12.00;98.60;;;;;;5023528;28;20478;-91
2021/10/11 07:03:05;;;;;;;6.85;2.55;;;12.00;98.60;;;;;;5027557;28;20048;-90
2021/10/11 07:05:31;;;;;;;6.80;2.50;;;11.90;98.60;;;;;;5042889;28;20038;-90
2021/10/11 07:07:58;;;;;;;11.48;3.10;;;11.90;98.60;;;;;;5041661;28;20104;-90
2021/10/11 07:10:24;;;;;;;9.48;2.92;;;11.90;98.60;;;;;;5029856;28;20028;-89
2021/10/11 07:12:51;;;;;;;9.18;2.70;;;11.90;98.70;;;;;;5023506;28;20378;-88
2021/10/11 07:15:17;;;;;;;9.88;3.15;;;11.90;98.70;;;;;;5033537;28;20037;-88
2021/10/11 07:17:42;;;;;;;10.20;3.42;;;12.00;98.80;;;;;;5045051;28;20021;-89
2021/10/11 07:20:11;;;;;;;6.70;2.33;;;12.00;98.80;;;;;;5029995;28;20436;-89
2021/10/11 07:22:37;;;;;;;7.22;2.30;;;12.00;98.90;;;;;;5047437;28;20124;-89
2021/10/11 07:25:04;;;;;;;12.25;3.00;;;12.00;98.90;;;;;;5050799;28;20079;-88
2021/10/11 07:27:29;;;;;;;11.20;3.28;;;12.00;99.00;;;;;;5030666;28;20037;-89
2021/10/11 07:29:55;;;;;;;5.75;2.50;;;12.00;99.00;;;;;;5022458;28;20446;-89
2021/10/11 07:35:43;;;;;;;8.90;2.95;;;12.00;99.00;;;;;;5069755;28;20027;-89
2021/10/11 07:38:09;;;;;;;8.05;2.72;;;12.10;99.00;;;;;;5039397;28;20033;-84
2021/10/11 07:40:35;;;;;;;5.13;2.38;;;12.10;99.00;;;;;;5050524;22;20041;-87
2021/10/11 07:43:00;;;;;;;10.55;3.10;;;12.10;99.00;;;;;;5024908;28;20434;-88
2021/10/11 07:45:26;;;;;;;8.05;2.97;;;12.10;99.00;;;;;;5030978;28;20049;-88
2021/10/11 07:47:52;;;;;;;7.75;3.00;;;12.10;99.00;;;;;;5024051;28;20028;-88
2021/10/11 07:50:18;;;;;;;5.05;2.30;;;12.10;99.00;;;;;;5039794;28;20017;-87
2021/10/11 07:52:43;;;;;;;6.85;3.20;;;12.10;99.00;;;;;;5050368;28;20028;-87
2021/10/11 07:55:09;;;;;;;8.30;3.63;;;12.20;99.00;;;;;;5037609;28;20111;-87
2021/10/11 07:57:39;;;;;;;8.60;3.05;;;12.20;99.00;;;;;;5033572;28;20124;-87
2021/10/11 08:00:08;;;;;;;7.72;2.58;;;12.20;99.00;;;;;;5038122;28;20024;-88
2021/10/11 08:02:34;;;;;;;8.50;2.38;;;12.20;99.00;;;;;;5039035;28;20390;-87
2021/10/11 08:05:00;;;;;;;8.55;2.72;;;12.20;99.00;;;;;;5021041;28;20036;-88
2021/10/11 08:07:25;;;;;;;9.95;3.63;;;12.20;99.00;;;;;;5040614;28;20044;-87
2021/10/11 08:09:51;;;;;;;8.77;2.65;;;12.20;99.00;;;;;;5043411;28;20044;-87
2021/10/11 08:12:17;;;;;;;8.27;3.10;;;12.20;99.00;;;;;;5034779;28;20034;-87
2021/10/11 08:14:44;;;;;;;8.48;3.00;;;12.20;99.00;;;;;;5018148;28;20024;-87
2021/10/11 08:17:11;;;;;;;7.25;3.03;;;12.20;99.00;;;;;;5018255;28;20482;-87
2021/10/11 08:19:37;;;;;;;10.10;3.05;;;12.30;99.00;;;;;;5034571;28;20037;-86
2021/10/11 08:22:03;;;;;;;10.18;2.67;;;12.30;99.10;;;;;;5061777;28;20040;-86
2021/10/11 08:24:29;;;;;;;8.45;2.92;;;12.30;99.10;;;;;;5036674;28;20033;-89
2021/10/11 08:26:55;;;;;;;7.13;2.38;;;12.30;99.10;;;;;;5010349;28;20025;-89
2021/10/11 08:29:21;;;;;;;6.85;2.78;;;12.40;99.10;;;;;;5038569;28;20032;-89
2021/10/11 08:31:50;;;;;;;5.85;2.83;;;12.40;99.10;;;;;;5036079;28;20021;-88
2021/10/11 08:34:15;;;;;;;8.43;3.13;;;12.40;99.20;;;;;;5036800;28;20052;-88
2021/10/11 08:36:44;;;;;;;7.40;2.65;;;12.50;99.20;;;;;;5050010;28;20017;-89
2021/10/11 08:39:10;;;;;;;8.68;3.20;;;12.50;99.20;;;;;;5058179;28;20103;-89
2021/10/11 08:41:36;;;;;;;7.13;2.50;;;12.50;99.20;;;;;;5040671;28;20037;-88
2021/10/11 08:44:02;;;;;;;9.85;2.50;;;12.50;99.20;;;;;;5054453;28;20025;-88
2021/10/11 08:46:28;;;;;;;7.00;2.20;;;12.50;99.20;;;;;;5038024;28;20174;-89
2021/10/11 08:48:54;;;;;;;5.90;2.40;;;12.50;99.20;;;;;;5021055;28;20025;-89
2021/10/11 08:51:20;;;;;;;6.93;2.15;;;12.60;99.20;;;;;;5047286;28;20024;-88
2021/10/11 08:53:46;;;;;;;8.18;2.30;;;12.60;99.30;;;;;;5038054;28;20493;-89
2021/10/11 08:56:13;;;;;;;11.98;3.03;;;12.70;99.30;;;;;;5034033;28;20032;-89
2021/10/11 08:58:46;;;;;;;9.95;2.63;;;12.70;99.30;;;;;;5022043;28;20052;-90
2021/10/11 09:01:18;;;;;;;7.18;2.38;;;12.70;99.30;;;;;;5053113;28;20033;-89
2021/10/11 09:03:44;;;;;;;4.80;2.22;;;12.80;99.30;;;;;;5023974;28;20394;-89
2021/10/11 09:06:11;;;;;;;6.65;2.42;;;12.80;99.30;;;;;;5041696;28;20172;-89
2021/10/11 09:08:43;;;;;;;9.65;2.92;;;12.80;99.30;;;;;;5054172;28;20417;-89
2021/10/11 09:11:11;;;;;;;7.55;2.72;;;12.80;99.30;;;;;;5068854;28;20017;-84
2021/10/11 09:13:44;;;;;;;8.98;2.60;;;12.80;99.40;;;;;;5042014;28;20028;-85
2021/10/11 09:16:23;;;;;;;6.78;2.85;;;12.90;99.40;;;;;;5056118;28;20024;-85
2021/10/11 09:18:55;;;;;;;6.22;2.50;;;12.90;99.40;;;;;;5033531;28;20110;-84
2021/10/11 09:21:38;;;;;;;7.03;2.42;;;12.90;99.40;;;;;;5051181;28;20087;-84
2021/10/11 09:24:18;;;;;;;6.53;2.28;;;13.00;99.40;;;;;;5038927;28;20036;-85
2021/10/11 09:26:52;;;;;;;7.78;2.28;;;13.00;99.40;;;;;;5046992;28;20373;-85
2021/10/11 09:29:31;;;;;;;10.57;3.47;;;13.10;99.50;;;;;;5040163;28;20474;-85
2021/10/11 09:32:06;;;;;;;5.53;2.20;;;13.10;99.50;;;;;;5055764;28;20040;-85
2021/10/11 09:34:32;;;;;;;7.40;2.28;;;13.10;99.50;;;;;;5058227;28;20016;-85
2021/10/11 09:37:03;;;;;;;7.97;2.30;;;13.20;99.50;;;;;;5032615;28;20028;-85
2021/10/11 09:39:32;;;;;;;9.10;2.63;;;13.20;99.50;;;;;;5044323;28;20017;-85
2021/10/11 09:41:59;;;;;;;7.72;2.50;;;13.30;99.50;;;;;;5037617;28;20080;-85
2021/10/11 09:44:25;;;;;;;7.47;2.20;;;13.30;99.50;;;;;;5044981;28;20113;-85
2021/10/11 09:46:56;;;;;;;6.85;2.38;;;13.30;99.50;;;;;;5029597;28;20029;-86
2021/10/11 09:49:24;;;;;;;7.47;2.60;;;13.30;99.50;;;;;;5040691;28;20043;-85
2021/10/11 09:51:54;;;;;;;8.05;2.97;;;13.40;99.50;;;;;;5067408;28;20017;-85
2021/10/11 09:54:21;;;;;;;7.78;2.60;;;13.40;99.50;;;;;;5065152;28;20440;-86
2021/10/11 09:56:47;;;;;;;9.70;2.75;;;13.50;99.50;;;;;;5030140;28;20103;-85
2021/10/11 09:59:16;;;;;;;11.05;2.97;;;13.50;99.50;;;;;;5064175;28;20021;-86
2021/10/11 10:01:42;;;;;;;8.52;2.95;;;13.50;99.50;;;;;;5014239;28;20079;-86
2021/10/11 10:04:14;;;;;;;10.60;3.00;;;13.60;99.60;;;;;;5017990;28;20381;-86
2021/10/11 10:06:41;;;;;;;7.05;2.58;;;13.60;99.50;;;;;;5048549;28;20078;-86
2021/10/11 10:09:09;;;;;;;10.98;2.85;;;13.60;99.50;;;;;;5032692;28;20017;-86
2021/10/11 10:11:39;;;;;;;9.25;3.70;;;13.60;99.50;;;;;;5026627;28;20032;-86
2021/10/11 10:14:06;;;;;;;7.03;2.28;;;13.60;99.50;;;;;;5039337;28;20079;-86
2021/10/11 10:16:33;;;;;;;5.88;2.00;;;13.70;99.50;;;;;;5044663;28;20005;-86
2021/10/11 10:19:10;;;;;;;10.90;2.72;;;13.70;99.50;;;;;;5059377;28;20056;-85
2021/10/11 10:21:39;;;;;;;8.40;2.92;;;13.80;99.60;;;;;;5058357;28;20032;-85
2021/10/11 10:24:05;;;;;;;8.40;2.15;;;13.80;99.50;;;;;;5050999;28;20060;-85
2021/10/11 10:26:35;;;;;;;9.07;2.28;;;13.80;99.50;;;;;;5055142;28;20084;-85
2021/10/11 10:29:18;;;;;;;7.10;2.33;;;13.90;99.50;;;;;;5026303;28;20037;-85
2021/10/11 10:31:44;;;;;;;8.18;2.50;;;13.90;99.50;;;;;;5029254;28;20109;-85
2021/10/11 10:34:20;;;;;;;12.10;2.30;;;14.00;99.60;;;;;;5025580;28;20033;-85
2021/10/11 10:37:06;;;;;;;9.75;2.13;;;14.00;99.60;;;;;;5047225;28;20021;-86
2021/10/11 10:39:49;;;;;;;6.47;2.10;;;14.00;99.60;;;;;;5056694;28;20048;-86
2021/10/11 10:42:29;;;;;;;7.80;2.58;;;14.10;99.70;;;;;;5042375;28;20115;-86
2021/10/11 10:44:57;;;;;;;8.10;2.60;;;14.10;99.70;;;;;;5057095;28;20050;-86
2021/10/11 10:47:36;;;;;;;8.00;2.45;;;14.20;99.80;;;;;;5061637;28;20055;-86
2021/10/11 10:50:13;;;;;;;13.43;2.45;;;14.30;99.80;;;;;;5036421;28;20036;-85
2021/10/11 10:52:39;;;;;;;11.20;2.38;;;14.40;99.90;;;;;;5059316;28;20079;-85
2021/10/11 10:55:05;;;;;;;11.43;2.72;;;14.40;99.80;;;;;;5062457;28;20029;-85
2021/10/11 10:57:32;;;;;;;6.63;1.80;;;14.50;99.80;;;;;;5022473;28;20035;-85
2021/10/11 11:00:05;;;;;;;9.73;2.08;;;14.60;99.80;;;;;;5057217;28;20081;-83
2021/10/11 11:02:32;;;;;;;8.18;2.00;;;14.60;99.80;;;;;;5049054;28;20053;-83
2021/10/11 11:05:04;;;;;;;9.57;2.55;;;14.70;99.70;;;;;;5046988;28;20091;-84
2021/10/11 11:07:36;;;;;;;5.18;1.70;;;14.80;99.70;;;;;;5055038;28;20035;-88
2021/10/11 11:10:11;;;;;;;8.38;2.10;;;14.80;99.60;;;;;;5069022;28;20115;-89
2021/10/11 11:12:38;;;;;;;7.50;2.03;;;14.80;99.60;;;;;;5052036;28;20036;-89
2021/10/11 11:15:35;;;;;;;6.05;1.83;;;14.90;99.60;;;;;;5040202;28;20017;-90
2021/10/11 11:18:07;;;;;;;5.88;2.05;;;14.90;99.50;;;;;;5043300;28;20038;-89
2021/10/11 11:20:39;;;;;;;4.35;1.45;;;14.90;99.50;;;;;;5041453;28;20017;-89
2021/10/11 11:23:19;;;;;;;3.92;1.45;;;15.00;99.50;;;;;;5055962;28;20026;-89
2021/10/11 11:25:48;;;;;;;8.50;1.80;;;15.00;99.50;;;;;;5040989;28;20390;-89
2021/10/11 11:28:18;;;;;;;7.85;1.88;;;15.10;99.60;;;;;;5075957;28;20124;-88
2021/10/11 11:30:46;;;;;;;8.75;1.77;;;15.10;99.50;;;;;;5062820;28;20100;-89
2021/10/11 11:33:16;;;;;;;6.50;1.80;;;15.20;99.50;;;;;;5041269;28;20025;-89
2021/10/11 11:35:52;;;;;;;8.40;1.80;;;15.30;99.40;;;;;;5031335;28;20040;-89
2021/10/11 11:38:22;;;;;;;8.18;1.60;;;15.30;99.40;;;;;;5039160;28;20037;-87
2021/10/11 11:40:52;;;;;;;5.68;1.20;;;15.40;99.40;;;;;;5029865;28;20045;-88
2021/10/11 11:43:18;;;;;;;7.10;1.95;;;15.50;99.40;;;;;;5056786;28;20017;-88
2021/10/11 11:45:50;;;;;;;6.20;1.30;;;15.50;99.30;;;;;;5022689;28;20029;-88
2021/10/11 11:48:19;;;;;;;5.22;1.40;;;15.60;99.30;;;;;;5042912;28;20028;-88
2021/10/11 11:50:49;;;;;;;6.07;1.45;;;15.60;99.30;;;;;;5038501;28;20017;-88
2021/10/11 11:53:16;;;;;;;;;;;15.70;99.30;;;;;;5042535;28;20025;-88
2021/10/11 11:55:47;;;;;;;5.60;1.17;;;15.70;99.00;;;;;;5043748;28;19955;-88
2021/10/11 11:58:27;;;;;;;7.85;1.40;;;15.70;99.20;;;;;;5054974;28;20115;-88
2021/10/11 12:00:59;;;;;;;7.43;1.90;;;15.80;98.70;;;;;;5037654;28;20474;-87
2021/10/11 12:03:31;;;;;;;4.38;1.20;;;15.80;98.60;;;;;;5045018;28;20033;-85
2021/10/11 12:06:00;;;;;;;6.70;1.40;;;15.80;98.60;;;;;;5026021;28;20025;-84
2021/10/11 12:08:27;;;;;;;4.72;1.17;;;15.80;98.30;;;;;;5055596;28;20485;-85
2021/10/11 12:11:00;;;;;;;8.32;1.58;;;15.80;98.20;;;;;;5037482;28;20009;-85
2021/10/11 12:13:31;;;;;;;7.78;1.73;;;15.80;98.00;;;;;;5037557;28;20445;-85
2021/10/11 12:16:08;;;;;;;6.70;1.42;;;15.80;97.90;;;;;;5037427;28;20136;-85
2021/10/11 12:18:38;;;;;;;5.00;1.05;;;15.80;97.70;;;;;;5021343;28;20040;-85
2021/10/11 12:21:05;;;;;;;7.45;1.58;;;15.80;97.80;;;;;;5054125;28;20021;-85
2021/10/11 12:23:41;;;;;;;4.55;1.05;;;15.90;97.80;;;;;;5024335;28;20082;-85
2021/10/11 12:26:07;;;;;;;6.45;1.25;;;15.90;97.80;;;;;;5045147;28;20377;-87
2021/10/11 12:28:33;;;;;;;4.95;1.17;;;16.00;97.90;;;;;;5021075;28;20063;-87
2021/10/11 12:31:02;;;;;;;4.55;0.90;;;16.10;97.90;;;;;;5037600;28;20762;-84
2021/10/11 12:33:39;;;;;;;4.00;1.00;;;16.20;98.00;;;;;;5050468;28;20067;-85
2021/10/11 12:36:07;;;;;;;4.30;1.05;;;16.20;97.90;;;;;;5058143;28;20025;-85
2021/10/11 12:38:38;;;;;;;4.82;1.65;;;16.30;97.90;;;;;;5045173;28;20025;-84
2021/10/11 12:41:08;;;;;;;;;;;16.40;97.70;;;;;;5032592;28;20151;-84
2021/10/11 12:43:33;;;;;;;7.60;2.03;;;16.40;97.00;;;;;;5077814;28;19911;-85
2021/10/11 12:46:11;;;;;;;6.03;1.30;;;16.40;97.10;;;;;;5062143;28;20038;-85
2021/10/11 12:49:01;;;;;;;6.00;1.23;;;16.50;97.00;;;;;;5054752;28;20016;-85
2021/10/11 12:51:31;;;;;;;3.53;1.10;;;16.40;96.70;;;;;;5062437;28;20423;-85
2021/10/11 12:54:06;;;;;;;10.73;2.00;;;16.40;96.50;;;;;;5040849;28;20047;-86
2021/10/11 12:56:34;;;;;;;7.68;1.35;;;16.40;96.60;;;;;;5037105;28;20021;-85